Time,TemperatureF,DewpointF,PressureIn,WindDirection,WindDirectionDegrees,WindSpeedMPH,WindSpeedGustMPH,Humidity,HourlyPrecipIn,Conditions,Clouds,dailyrainin,SoftwareType,DateUTC
2013-02-03 00:04:00,46.0,-99.9,-100.00,West,260,2.0,7.0,-999,-99.99,,,-99.99,,2013-02-03 05:04:00,
2013-02-03 00:12:00,46.0,-99.9,-100.00,West,260,2.0,7.0,-999,-99.99,,,-99.99,,2013-02-03 05:12:00,
2013-02-03 00:23:00,46.0,-99.9,-100.00,West,260,2.0,7.0,-999,-99.99,,,-99.99,,2013-02-03 05:23:00,
2013-02-03 00:40:00,45.0,-99.9,-100.00,SW,220,2.0,3.0,-999,-99.99,,,-99.99,,2013-02-03 05:40:00,
2013-02-03 01:02:00,45.0,-99.9,-100.00,SW,220,2.0,3.0,-999,-99.99,,,-99.99,,2013-02-03 06:02:00,
2013-02-03 01:11:00,45.0,-99.9,-100.00,SW,220,2.0,3.0,-999,-99.99,,,-99.99,,2013-02-03 06:11:00,
2013-02-03 01:22:00,45.0,-99.9,-100.00,SW,220,2.0,3.0,-999,-99.99,,,-99.99,,2013-02-03 06:22:00,
2013-02-03 01:32:00,45.0,-99.9,-100.00,SW,220,2.0,3.0,-999,-99.99,,,-99.99,,2013-02-03 06:32:00,
2013-02-03 01:40:00,44.0,-99.9,-100.00,West,270,9.0,11.0,-999,-99.99,,,-99.99,,2013-02-03 06:40:00,
2013-02-03 02:02:00,44.0,-99.9,-100.00,West,270,9.0,11.0,-999,-99.99,,,-99.99,,2013-02-03 07:02:00,
2013-02-03 02:11:00,44.0,-99.9,-100.00,West,270,9.0,11.0,-999,-99.99,,,-99.99,,2013-02-03 07:11:00,
2013-02-03 02:22:00,44.0,-99.9,-100.00,West,270,9.0,11.0,-999,-99.99,,,-99.99,,2013-02-03 07:22:00,
2013-02-03 02:32:00,44.0,-99.9,-100.00,West,270,9.0,11.0,-999,-99.99,,,-99.99,,2013-02-03 07:32:00,
2013-02-03 02:40:00,45.0,-99.9,-100.00,West,270,15.0,20.0,-999,-99.99,,,-99.99,,2013-02-03 07:40:00,
2013-02-03 03:02:00,45.0,-99.9,-100.00,West,270,15.0,20.0,-999,-99.99,,,-99.99,,2013-02-03 08:02:00,
2013-02-03 03:11:00,45.0,-99.9,-100.00,West,270,15.0,20.0,-999,-99.99,,,-99.99,,2013-02-03 08:11:00,
2013-02-03 03:22:00,45.0,-99.9,-100.00,West,270,15.0,20.0,-999,-99.99,,,-99.99,,2013-02-03 08:22:00,
2013-02-03 03:32:00,45.0,-99.9,-100.00,West,270,15.0,20.0,-999,-99.99,,,-99.99,,2013-02-03 08:32:00,
2013-02-03 03:40:00,44.0,-99.9,-100.00,West,270,15.0,22.0,-999,-99.99,,,-99.99,,2013-02-03 08:40:00,
2013-02-03 04:03:00,44.0,-99.9,-100.00,West,270,15.0,22.0,-999,-99.99,,,-99.99,,2013-02-03 09:03:00,
2013-02-03 04:11:00,44.0,-99.9,-100.00,West,270,15.0,22.0,-999,-99.99,,,-99.99,,2013-02-03 09:11:00,
2013-02-03 04:22:00,44.0,-99.9,-100.00,West,270,15.0,22.0,-999,-99.99,,,-99.99,,2013-02-03 09:22:00,
2013-02-03 04:30:00,43.0,-99.9,-100.00,West,270,13.0,18.0,-999,-99.99,,,-99.99,,2013-02-03 09:30:00,
2013-02-03 04:32:00,44.0,-99.9,-100.00,West,270,15.0,22.0,-999,-99.99,,,-99.99,,2013-02-03 09:32:00,
2013-02-03 05:02:00,43.0,-99.9,-100.00,West,270,13.0,18.0,-999,-99.99,,,-99.99,,2013-02-03 10:02:00,
2013-02-03 05:11:00,43.0,-99.9,-100.00,West,270,13.0,18.0,-999,-99.99,,,-99.99,,2013-02-03 10:11:00,
2013-02-03 05:22:00,43.0,-99.9,-100.00,West,270,13.0,18.0,-999,-99.99,,,-99.99,,2013-02-03 10:22:00,
2013-02-03 05:40:00,41.0,-99.9,-100.00,South,180,2.0,11.0,-999,-99.99,,,-99.99,,2013-02-03 10:40:00,
2013-02-03 06:02:00,41.0,-99.9,-100.00,South,180,2.0,11.0,-999,-99.99,,,-99.99,,2013-02-03 11:02:00,
2013-02-03 06:11:00,41.0,-99.9,-100.00,South,180,2.0,11.0,-999,-99.99,,,-99.99,,2013-02-03 11:11:00,
2013-02-03 06:22:00,41.0,-99.9,-100.00,South,180,2.0,11.0,-999,-99.99,,,-99.99,,2013-02-03 11:22:00,
2013-02-03 06:32:00,41.0,-99.9,-100.00,South,180,2.0,11.0,-999,-99.99,,,-99.99,,2013-02-03 11:32:00,
2013-02-03 06:40:00,40.0,-99.9,-100.00,SW,230,2.0,13.0,-999,-99.99,,,-99.99,,2013-02-03 11:40:00,
2013-02-03 07:03:00,40.0,-99.9,-100.00,SW,230,2.0,13.0,-999,-99.99,,,-99.99,,2013-02-03 12:03:00,
2013-02-03 07:12:00,40.0,-99.9,-100.00,SW,230,2.0,13.0,-999,-99.99,,,-99.99,,2013-02-03 12:12:00,
2013-02-03 07:22:00,40.0,-99.9,-100.00,SW,230,2.0,13.0,-999,-99.99,,,-99.99,,2013-02-03 12:22:00,
2013-02-03 07:33:00,40.0,-99.9,-100.00,SW,230,2.0,13.0,-999,-99.99,,,-99.99,,2013-02-03 12:33:00,
2013-02-03 07:40:00,40.0,-99.9,-100.00,WSW,240,1.0,11.0,-999,-99.99,,,-99.99,,2013-02-03 12:40:00,
2013-02-03 08:04:00,40.0,-99.9,-100.00,WSW,240,1.0,11.0,-999,-99.99,,,-99.99,,2013-02-03 13:04:00,
2013-02-03 08:12:00,40.0,-99.9,-100.00,WSW,240,1.0,11.0,-999,-99.99,,,-99.99,,2013-02-03 13:12:00,
2013-02-03 08:22:00,40.0,-99.9,-100.00,WSW,240,1.0,11.0,-999,-99.99,,,-99.99,,2013-02-03 13:22:00,
2013-02-03 08:32:00,40.0,-99.9,-100.00,WSW,240,1.0,11.0,-999,-99.99,,,-99.99,,2013-02-03 13:32:00,
2013-02-03 08:40:00,42.0,-99.9,-100.00,SW,220,2.0,11.0,-999,-99.99,,,-99.99,,2013-02-03 13:40:00,
2013-02-03 09:03:00,42.0,-99.9,-100.00,SW,220,2.0,11.0,-999,-99.99,,,-99.99,,2013-02-03 14:03:00,
2013-02-03 09:12:00,42.0,-99.9,-100.00,SW,220,2.0,11.0,-999,-99.99,,,-99.99,,2013-02-03 14:12:00,
2013-02-03 09:22:00,42.0,-99.9,-100.00,SW,220,2.0,11.0,-999,-99.99,,,-99.99,,2013-02-03 14:22:00,
2013-02-03 09:32:00,42.0,-99.9,-100.00,SW,220,2.0,11.0,-999,-99.99,,,-99.99,,2013-02-03 14:32:00,
2013-02-03 09:40:00,45.0,-99.9,-100.00,SW,230,3.0,15.0,-999,-99.99,,,-99.99,,2013-02-03 14:40:00,
2013-02-03 10:03:00,45.0,-99.9,-100.00,SW,230,3.0,15.0,-999,-99.99,,,-99.99,,2013-02-03 15:03:00,
2013-02-03 10:12:00,45.0,-99.9,-100.00,SW,230,3.0,15.0,-999,-99.99,,,-99.99,,2013-02-03 15:12:00,
2013-02-03 10:23:00,45.0,-99.9,-100.00,SW,230,3.0,15.0,-999,-99.99,,,-99.99,,2013-02-03 15:23:00,
2013-02-03 10:33:00,45.0,-99.9,-100.00,SW,230,3.0,15.0,-999,-99.99,,,-99.99,,2013-02-03 15:33:00,
2013-02-03 10:40:00,47.0,-99.9,-100.00,West,260,9.0,13.0,-999,-99.99,,,-99.99,,2013-02-03 15:40:00,
2013-02-03 11:03:00,47.0,-99.9,-100.00,West,260,9.0,13.0,-999,-99.99,,,-99.99,,2013-02-03 16:03:00,
2013-02-03 11:12:00,47.0,-99.9,-100.00,West,260,9.0,13.0,-999,-99.99,,,-99.99,,2013-02-03 16:12:00,
2013-02-03 11:22:00,47.0,-99.9,-100.00,West,260,9.0,13.0,-999,-99.99,,,-99.99,,2013-02-03 16:22:00,
2013-02-03 11:33:00,47.0,-99.9,-100.00,West,260,9.0,13.0,-999,-99.99,,,-99.99,,2013-02-03 16:33:00,
2013-02-03 11:40:00,51.0,-99.9,-100.00,West,260,14.0,23.0,-999,-99.99,,,-99.99,,2013-02-03 16:40:00,
2013-02-03 12:03:00,51.0,-99.9,-100.00,West,260,14.0,23.0,-999,-99.99,,,-99.99,,2013-02-03 17:03:00,
2013-02-03 12:12:00,51.0,-99.9,-100.00,West,260,14.0,23.0,-999,-99.99,,,-99.99,,2013-02-03 17:12:00,
2013-02-03 12:22:00,51.0,-99.9,-100.00,West,260,14.0,23.0,-999,-99.99,,,-99.99,,2013-02-03 17:22:00,
2013-02-03 12:32:00,51.0,-99.9,-100.00,West,260,14.0,23.0,-999,-99.99,,,-99.99,,2013-02-03 17:32:00,
2013-02-03 12:40:00,54.0,-99.9,-100.00,West,260,15.0,24.0,-999,-99.99,,,-99.99,,2013-02-03 17:40:00,
2013-02-03 13:03:00,54.0,-99.9,-100.00,West,260,15.0,24.0,-999,-99.99,,,-99.99,,2013-02-03 18:03:00,
2013-02-03 13:12:00,54.0,-99.9,-100.00,West,260,15.0,24.0,-999,-99.99,,,-99.99,,2013-02-03 18:12:00,
2013-02-03 13:23:00,54.0,-99.9,-100.00,West,260,15.0,24.0,-999,-99.99,,,-99.99,,2013-02-03 18:23:00,
2013-02-03 13:33:00,54.0,-99.9,-100.00,West,260,15.0,24.0,-999,-99.99,,,-99.99,,2013-02-03 18:33:00,
2013-02-03 13:40:00,56.0,-99.9,-100.00,West,260,15.0,25.0,-999,-99.99,,,-99.99,,2013-02-03 18:40:00,
2013-02-03 14:03:00,56.0,-99.9,-100.00,West,260,15.0,25.0,-999,-99.99,,,-99.99,,2013-02-03 19:03:00,
2013-02-03 14:11:00,56.0,-99.9,-100.00,West,260,15.0,25.0,-999,-99.99,,,-99.99,,2013-02-03 19:11:00,
2013-02-03 14:22:00,56.0,-99.9,-100.00,West,260,15.0,25.0,-999,-99.99,,,-99.99,,2013-02-03 19:22:00,
2013-02-03 14:33:00,56.0,-99.9,-100.00,West,260,15.0,25.0,-999,-99.99,,,-99.99,,2013-02-03 19:33:00,
2013-02-03 14:40:00,57.0,-99.9,-100.00,West,280,18.0,29.0,-999,-99.99,,,-99.99,,2013-02-03 19:40:00,
2013-02-03 15:02:00,57.0,-99.9,-100.00,West,280,18.0,29.0,-999,-99.99,,,-99.99,,2013-02-03 20:02:00,
2013-02-03 15:12:00,57.0,-99.9,-100.00,West,280,18.0,29.0,-999,-99.99,,,-99.99,,2013-02-03 20:12:00,
2013-02-03 15:22:00,57.0,-99.9,-100.00,West,280,18.0,29.0,-999,-99.99,,,-99.99,,2013-02-03 20:22:00,
2013-02-03 15:33:00,57.0,-99.9,-100.00,West,280,18.0,29.0,-999,-99.99,,,-99.99,,2013-02-03 20:33:00,
2013-02-03 15:40:00,58.0,-99.9,-100.00,West,270,17.0,29.0,-999,-99.99,,,-99.99,,2013-02-03 20:40:00,
2013-02-03 16:04:00,58.0,-99.9,-100.00,West,270,17.0,29.0,-999,-99.99,,,-99.99,,2013-02-03 21:04:00,
2013-02-03 16:11:00,58.0,-99.9,-100.00,West,270,17.0,29.0,-999,-99.99,,,-99.99,,2013-02-03 21:11:00,
2013-02-03 16:22:00,58.0,-99.9,-100.00,West,270,17.0,29.0,-999,-99.99,,,-99.99,,2013-02-03 21:22:00,
2013-02-03 16:33:00,58.0,-99.9,-100.00,West,270,17.0,29.0,-999,-99.99,,,-99.99,,2013-02-03 21:33:00,
2013-02-03 16:40:00,58.0,-99.9,-100.00,West,270,20.0,28.0,-999,-99.99,,,-99.99,,2013-02-03 21:40:00,
2013-02-03 17:02:00,58.0,-99.9,-100.00,West,270,20.0,28.0,-999,-99.99,,,-99.99,,2013-02-03 22:02:00,
2013-02-03 17:11:00,58.0,-99.9,-100.00,West,270,20.0,28.0,-999,-99.99,,,-99.99,,2013-02-03 22:11:00,
2013-02-03 17:22:00,58.0,-99.9,-100.00,West,270,20.0,28.0,-999,-99.99,,,-99.99,,2013-02-03 22:22:00,
2013-02-03 17:32:00,58.0,-99.9,-100.00,West,270,20.0,28.0,-999,-99.99,,,-99.99,,2013-02-03 22:32:00,
2013-02-03 17:40:00,56.0,-99.9,-100.00,WNW,290,16.0,23.0,-999,-99.99,,,-99.99,,2013-02-03 22:40:00,
2013-02-03 18:02:00,56.0,-99.9,-100.00,WNW,290,16.0,23.0,-999,-99.99,,,-99.99,,2013-02-03 23:02:00,
2013-02-03 18:12:00,56.0,-99.9,-100.00,WNW,290,16.0,23.0,-999,-99.99,,,-99.99,,2013-02-03 23:12:00,
2013-02-03 18:22:00,56.0,-99.9,-100.00,WNW,290,16.0,23.0,-999,-99.99,,,-99.99,,2013-02-03 23:22:00,
2013-02-03 18:33:00,56.0,-99.9,-100.00,WNW,290,16.0,23.0,-999,-99.99,,,-99.99,,2013-02-03 23:33:00,
2013-02-03 18:40:00,54.0,-99.9,-100.00,WNW,300,15.0,21.0,-999,-99.99,,,-99.99,,2013-02-03 23:40:00,
2013-02-03 19:02:00,54.0,-99.9,-100.00,WNW,300,15.0,21.0,-999,-99.99,,,-99.99,,2013-02-04 00:02:00,
2013-02-03 19:11:00,54.0,-99.9,-100.00,WNW,300,15.0,21.0,-999,-99.99,,,-99.99,,2013-02-04 00:11:00,
2013-02-03 19:22:00,54.0,-99.9,-100.00,WNW,300,15.0,21.0,-999,-99.99,,,-99.99,,2013-02-04 00:22:00,
2013-02-03 19:32:00,54.0,-99.9,-100.00,WNW,300,15.0,21.0,-999,-99.99,,,-99.99,,2013-02-04 00:32:00,
2013-02-03 19:40:00,53.0,-99.9,-100.00,NW,310,8.0,10.0,-999,-99.99,,,-99.99,,2013-02-04 00:40:00,
2013-02-03 20:01:00,53.0,-99.9,-100.00,NW,310,8.0,10.0,-999,-99.99,,,-99.99,,2013-02-04 01:01:00,
2013-02-03 20:11:00,53.0,-99.9,-100.00,NW,310,8.0,10.0,-999,-99.99,,,-99.99,,2013-02-04 01:11:00,
2013-02-03 20:22:00,53.0,-99.9,-100.00,NW,310,8.0,10.0,-999,-99.99,,,-99.99,,2013-02-04 01:22:00,
2013-02-03 20:32:00,53.0,-99.9,-100.00,NW,310,8.0,10.0,-999,-99.99,,,-99.99,,2013-02-04 01:32:00,
2013-02-03 20:40:00,50.0,-99.9,-100.00,West,260,8.0,8.0,-999,-99.99,,,-99.99,,2013-02-04 01:40:00,
2013-02-03 21:02:00,50.0,-99.9,-100.00,West,260,8.0,8.0,-999,-99.99,,,-99.99,,2013-02-04 02:02:00,
2013-02-03 21:11:00,50.0,-99.9,-100.00,West,260,8.0,8.0,-999,-99.99,,,-99.99,,2013-02-04 02:11:00,
2013-02-03 21:22:00,50.0,-99.9,-100.00,West,260,8.0,8.0,-999,-99.99,,,-99.99,,2013-02-04 02:22:00,
2013-02-03 21:32:00,50.0,-99.9,-100.00,West,260,8.0,8.0,-999,-99.99,,,-99.99,,2013-02-04 02:32:00,
2013-02-03 21:40:00,50.0,-99.9,-100.00,West,260,8.0,13.0,-999,-99.99,,,-99.99,,2013-02-04 02:40:00,
2013-02-03 22:02:00,50.0,-99.9,-100.00,West,260,8.0,13.0,-999,-99.99,,,-99.99,,2013-02-04 03:02:00,
2013-02-03 22:11:00,50.0,-99.9,-100.00,West,260,8.0,13.0,-999,-99.99,,,-99.99,,2013-02-04 03:11:00,
2013-02-03 22:22:00,50.0,-99.9,-100.00,West,260,8.0,13.0,-999,-99.99,,,-99.99,,2013-02-04 03:22:00,
2013-02-03 22:32:00,50.0,-99.9,-100.00,West,260,8.0,13.0,-999,-99.99,,,-99.99,,2013-02-04 03:32:00,
2013-02-03 22:40:00,49.0,-99.9,-100.00,WSW,250,7.0,13.0,-999,-99.99,,,-99.99,,2013-02-04 03:40:00,
2013-02-03 23:02:00,49.0,-99.9,-100.00,WSW,250,7.0,13.0,-999,-99.99,,,-99.99,,2013-02-04 04:02:00,
2013-02-03 23:11:00,49.0,-99.9,-100.00,WSW,250,7.0,13.0,-999,-99.99,,,-99.99,,2013-02-04 04:11:00,
2013-02-03 23:22:00,49.0,-99.9,-100.00,WSW,250,7.0,13.0,-999,-99.99,,,-99.99,,2013-02-04 04:22:00,
2013-02-03 23:32:00,49.0,-99.9,-100.00,WSW,250,7.0,13.0,-999,-99.99,,,-99.99,,2013-02-04 04:32:00,
2013-02-03 23:40:00,48.0,-99.9,-100.00,West,260,9.0,14.0,-999,-99.99,,,-99.99,,2013-02-04 04:40:00,